This is the latest recevied weather packets stored in our database for station/object KC3QJO. If no packets are shown the sender has not sent any weather packets the latest 10 day(s).
| Time | Temp. | Humidity | Pressure | Rain* | Wind** | Luminosity | Snow |
|---|---|---|---|---|---|---|---|
| 1777725351 | 7.22° C | 74% | 1011.6 hPa | 0 mm | - | 188 W/m² | - |
| 1777723262 | 6.11° C | 79% | 1011.5 hPa | 0 mm | - | 169 W/m² | - |
| 1777721453 | 6.11° C | 84% | 1011.6 hPa | 0 mm | - | 109 W/m² | - |
| 1777721154 | 6.11° C | 84% | 1011.6 hPa | 0 mm | - | 113 W/m² | - |
| 1777720252 | 6.67° C | 86% | 1011.4 hPa | 0.25 mm | - | 84 W/m² | - |
| 1777718452 | 6.67° C | 90% | 1011 hPa | 0.25 mm | - | 33 W/m² | - |
| 1777718153 | 6.67° C | 90% | 1011.2 hPa | 0.25 mm | - | 28 W/m² | - |
| 1777717863 | 6.67° C | 90% | 1011.1 hPa | 0.25 mm | - | 28 W/m² | - |
| 1777717551 | 6.67° C | 90% | 1011.1 hPa | 0.25 mm | - | 18 W/m² | - |
| 1777716652 | 6.67° C | 90% | 1010.8 hPa | 0 mm | - | 0 W/m² | - |
| 1777716352 | 6.67° C | 90% | 1010.7 hPa | 0 mm | - | 0 W/m² | - |
| 1777715752 | 6.67° C | 90% | 1010.7 hPa | 0 mm | - | 0 W/m² | - |
| 1777715452 | 6.67° C | 89% | 1010.4 hPa | 0 mm | - | 0 W/m² | - |
| 1777714265 | 7.22° C | 89% | 1010.3 hPa | 0 mm | - | 0 W/m² | - |
| 1777713358 | 7.22° C | 89% | 1010.3 hPa | 0 mm | - | 0 W/m² | - |
| 1777713053 | 7.22° C | 89% | 1010.4 hPa | 0 mm | - | 0 W/m² | - |
| 1777709152 | 7.78° C | 87% | 1010.3 hPa | 0.25 mm | - | 0 W/m² | - |
| 1777708255 | 8.33° C | 86% | 1010.1 hPa | 0.51 mm | - | 0 W/m² | - |
| 1777707961 | 8.33° C | 85% | 1010.2 hPa | 0.51 mm | - | 0 W/m² | - |
| 1777707050 | 8.33° C | 84% | 1010.2 hPa | 0.51 mm | - | 0 W/m² | - |
| 1777705552 | 8.33° C | 83% | 1010.4 hPa | 0.25 mm | - | 0 W/m² | - |
| 1777704652 | 8.89° C | 82% | 1010.9 hPa | 0 mm | - | 0 W/m² | - |
| 1777704055 | 8.89° C | 81% | 1011 hPa | 0 mm | - | 0 W/m² | - |
| 1777703453 | 8.89° C | 79% | 1011.2 hPa | 0 mm | - | 0 W/m² | - |
| 1777702252 | 9.44° C | 77% | 1011 hPa | 0 mm | - | 0 W/m² | - |
* Rain latest hour (hover to see other rain measurements)
** Current wind speed in m/s (hover to see current wind gust speed)